Time;durP1;ratioP1;P1;durP2;ratioP2;P2;SDS_P1;SDS_P2;PMS_P1;PMS_P2;Temp;Humidity;BMP_temperature;BMP_pressure;BME280_temperature;BME280_humidity;BME280_pressure;Samples;Min_cycle;Max_cycle;Signal;HPM_P1;HPM_P2
2021/03/21 00:02:01;;;;;;;5.27;3.20;;;3.40;67.50;;;;;;6288758;28;20037;-80
2021/03/21 00:05:04;;;;;;;4.40;3.23;;;3.50;66.90;;;;;;6287462;28;20049;-82
2021/03/21 00:08:11;;;;;;;3.00;2.30;;;3.50;66.50;;;;;;6288042;28;20065;-81
2021/03/21 00:11:12;;;;;;;5.30;2.23;;;3.50;66.70;;;;;;6290877;28;20045;-81
2021/03/21 00:14:14;;;;;;;4.23;2.40;;;3.50;66.00;;;;;;6288606;28;20056;-80
2021/03/21 00:17:15;;;;;;;5.27;2.70;;;3.50;66.10;;;;;;6285182;28;20095;-81
2021/03/21 00:20:20;;;;;;;2.67;2.47;;;3.60;65.30;;;;;;6285209;28;20143;-79
2021/03/21 00:23:22;;;;;;;3.27;1.80;;;3.60;65.70;;;;;;6286166;28;20481;-82
2021/03/21 00:26:23;;;;;;;3.63;1.70;;;3.60;65.80;;;;;;6290497;28;20118;-79
2021/03/21 00:29:24;;;;;;;3.93;2.43;;;3.50;65.50;;;;;;6307532;28;20060;-80
2021/03/21 00:32:26;;;;;;;3.30;2.30;;;3.60;65.60;;;;;;6314492;28;20413;-81
2021/03/21 00:35:28;;;;;;;2.83;2.57;;;3.60;65.90;;;;;;6315377;28;20040;-81
2021/03/21 00:38:31;;;;;;;4.93;3.50;;;3.60;65.40;;;;;;6323137;28;20036;-79
2021/03/21 00:41:33;;;;;;;3.10;2.40;;;3.60;65.10;;;;;;6327767;28;20040;-79
2021/03/21 00:44:34;;;;;;;4.37;3.40;;;3.70;65.30;;;;;;6323123;28;20048;-81
2021/03/21 00:47:36;;;;;;;3.87;2.50;;;3.70;65.00;;;;;;6320478;28;20056;-80
2021/03/21 00:50:38;;;;;;;4.70;2.60;;;3.70;65.00;;;;;;6314346;28;20068;-80
2021/03/21 00:53:41;;;;;;;3.67;2.40;;;3.70;64.80;;;;;;6315246;28;20040;-81
2021/03/21 00:56:42;;;;;;;4.00;3.13;;;3.70;64.80;;;;;;6316634;28;20052;-80
2021/03/21 00:59:43;;;;;;;3.33;2.23;;;3.80;65.40;;;;;;6313525;28;20044;-80
2021/03/21 01:02:45;;;;;;;3.53;2.57;;;3.80;65.60;;;;;;6314362;28;20135;-80
2021/03/21 01:05:50;;;;;;;4.63;3.33;;;3.70;65.70;;;;;;6314168;28;20040;-80
2021/03/21 01:08:54;;;;;;;3.70;2.53;;;3.70;66.00;;;;;;6313409;28;20087;-80
2021/03/21 01:11:56;;;;;;;4.30;2.90;;;3.70;65.80;;;;;;6314981;28;20049;-80
2021/03/21 01:14:57;;;;;;;5.97;2.47;;;3.70;66.40;;;;;;6301726;28;20045;-81
2021/03/21 01:17:58;;;;;;;5.37;2.70;;;3.70;66.60;;;;;;6290291;28;20065;-80
2021/03/21 01:21:02;;;;;;;5.83;2.73;;;3.80;66.60;;;;;;6291548;28;20194;-81
2021/03/21 01:24:03;;;;;;;6.20;3.13;;;3.70;66.20;;;;;;6290240;28;20059;-80
2021/03/21 01:27:06;;;;;;;6.53;3.43;;;3.70;65.70;;;;;;6291285;28;20087;-79
2021/03/21 01:30:08;;;;;;;4.00;2.73;;;3.70;65.90;;;;;;6287198;28;20052;-82
2021/03/21 01:33:10;;;;;;;6.47;3.77;;;3.70;65.70;;;;;;6287483;28;20495;-80
2021/03/21 01:36:16;;;;;;;8.70;3.35;;;3.70;64.90;;;;;;6283663;28;20053;-79
2021/03/21 01:39:23;;;;;;;3.57;3.03;;;3.70;64.70;;;;;;6284837;28;20076;-80
2021/03/21 01:42:25;;;;;;;3.60;2.83;;;3.70;64.50;;;;;;6284362;28;20463;-80
2021/03/21 01:45:40;;;;;;;3.53;2.27;;;3.70;64.40;;;;;;6284095;28;20098;-79
2021/03/21 01:48:46;;;;;;;5.93;2.47;;;3.70;64.20;;;;;;6288500;28;20079;-78
2021/03/21 01:51:51;;;;;;;5.43;3.17;;;3.70;64.30;;;;;;6287574;28;20064;-80
2021/03/21 01:54:53;;;;;;;4.80;2.03;;;3.70;64.10;;;;;;6286348;28;20037;-79
2021/03/21 01:57:55;;;;;;;3.87;3.00;;;3.70;63.30;;;;;;6286075;28;20065;-80
2021/03/21 02:00:58;;;;;;;4.67;2.63;;;3.70;63.20;;;;;;6277332;28;20126;-80
2021/03/21 02:03:59;;;;;;;4.03;2.20;;;3.70;62.80;;;;;;6286819;28;20048;-81
2021/03/21 02:07:14;;;;;;;3.03;2.70;;;3.80;62.50;;;;;;6285659;28;20052;-78
2021/03/21 02:10:25;;;;;;;6.37;2.37;;;3.70;61.90;;;;;;6286657;28;20100;-82
2021/03/21 02:13:33;;;;;;;2.83;2.03;;;3.70;61.90;;;;;;6284517;28;20455;-80
2021/03/21 02:16:40;;;;;;;4.05;2.83;;;3.70;61.60;;;;;;6285373;28;20076;-80
2021/03/21 02:20:18;;;;;;;3.57;2.67;;;3.60;61.60;;;;;;6284791;28;20045;-80
2021/03/21 02:23:41;;;;;;;4.30;2.63;;;3.70;61.10;;;;;;6284750;28;20109;-80
2021/03/21 02:26:58;;;;;;;5.57;2.55;;;3.70;61.40;;;;;;6286455;28;20044;-80
2021/03/21 02:30:09;;;;;;;4.72;2.63;;;3.70;61.10;;;;;;6292042;28;20505;-80
2021/03/21 02:33:16;;;;;;;3.37;3.07;;;3.70;61.10;;;;;;6291988;28;20049;-80
2021/03/21 02:36:22;;;;;;;3.13;2.50;;;3.70;61.10;;;;;;6291285;28;20372;-80
2021/03/21 02:39:29;;;;;;;3.60;2.23;;;3.70;61.30;;;;;;6288457;28;20076;-79
2021/03/21 02:42:36;;;;;;;3.90;2.37;;;3.70;61.20;;;;;;6290244;28;20052;-80
2021/03/21 02:45:41;;;;;;;3.40;3.00;;;3.70;61.10;;;;;;6287580;28;20045;-79
2021/03/21 02:48:45;;;;;;;2.87;2.47;;;3.70;61.00;;;;;;6286808;28;20084;-81
2021/03/21 02:51:52;;;;;;;4.93;2.70;;;3.70;60.80;;;;;;6285684;28;20068;-81
2021/03/21 02:54:58;;;;;;;2.63;2.13;;;3.70;60.90;;;;;;6286862;28;20056;-79
2021/03/21 02:58:04;;;;;;;3.30;2.30;;;3.70;61.10;;;;;;6286068;28;20068;-79
2021/03/21 03:01:10;;;;;;;7.50;3.70;;;3.70;61.10;;;;;;6285339;28;20045;-81
2021/03/21 03:04:16;;;;;;;2.93;2.10;;;3.70;61.40;;;;;;6285572;28;20060;-80
2021/03/21 03:07:31;;;;;;;3.50;2.40;;;3.70;61.30;;;;;;6291117;28;20049;-80
2021/03/21 03:10:38;;;;;;;3.53;2.57;;;3.80;61.20;;;;;;6289208;28;20399;-79
2021/03/21 03:13:42;;;;;;;3.53;2.33;;;3.70;60.90;;;;;;6290375;28;20041;-80
2021/03/21 03:16:53;;;;;;;5.50;2.53;;;3.70;60.90;;;;;;6289103;28;20072;-79
2021/03/21 03:19:59;;;;;;;3.93;2.40;;;3.70;61.50;;;;;;6288843;28;20052;-79
2021/03/21 03:23:07;;;;;;;6.13;2.43;;;3.70;61.00;;;;;;6288754;28;20049;-79
2021/03/21 03:26:10;;;;;;;;;;;3.70;60.90;;;;;;6290517;28;20094;-80
2021/03/21 03:29:18;;;;;;;2.60;2.37;;;3.70;60.80;;;;;;6289069;28;19921;-79
2021/03/21 03:32:20;;;;;;;3.28;2.90;;;3.70;61.00;;;;;;6290626;28;20073;-81
2021/03/21 03:35:24;;;;;;;5.97;3.90;;;3.70;61.00;;;;;;6284079;28;20045;-80
2021/03/21 03:38:25;;;;;;;3.80;2.63;;;3.70;61.10;;;;;;6278379;28;20041;-81
2021/03/21 03:41:36;;;;;;;5.40;2.23;;;3.70;60.90;;;;;;6278147;28;20084;-81
2021/03/21 03:44:46;;;;;;;3.03;2.67;;;3.70;61.00;;;;;;6277917;28;20068;-82
2021/03/21 03:47:58;;;;;;;3.90;2.47;;;3.70;61.50;;;;;;6277226;28;20064;-81
2021/03/21 03:51:07;;;;;;;3.83;2.17;;;3.80;62.00;;;;;;6276696;28;20579;-81
2021/03/21 03:54:19;;;;;;;6.57;2.63;;;3.80;62.50;;;;;;6277277;28;20053;-82
2021/03/21 03:57:28;;;;;;;3.45;2.40;;;3.80;62.70;;;;;;6277373;28;20415;-80
2021/03/21 04:00:33;;;;;;;6.28;3.10;;;3.80;62.70;;;;;;6279667;28;20073;-81
2021/03/21 04:03:42;;;;;;;3.97;2.30;;;3.80;63.10;;;;;;6283159;28;20053;-79
2021/03/21 04:06:53;;;;;;;4.45;3.17;;;3.80;63.40;;;;;;6282948;28;20139;-79
2021/03/21 04:09:59;;;;;;;4.40;2.22;;;3.80;63.60;;;;;;6283500;28;20123;-80
2021/03/21 04:13:08;;;;;;;3.40;2.63;;;3.80;63.80;;;;;;6288485;28;20620;-80
2021/03/21 04:16:13;;;;;;;4.37;2.13;;;3.80;63.90;;;;;;6288501;28;20506;-80
2021/03/21 04:19:18;;;;;;;4.40;2.40;;;3.70;63.90;;;;;;6284652;28;20429;-81
2021/03/21 04:22:24;;;;;;;5.20;2.87;;;3.80;64.20;;;;;;6285187;28;20109;-80
2021/03/21 04:25:29;;;;;;;4.40;2.57;;;3.70;64.30;;;;;;6284482;28;20426;-79
2021/03/21 04:28:38;;;;;;;2.83;2.53;;;3.70;63.90;;;;;;6287116;28;20084;-80
2021/03/21 04:31:42;;;;;;;4.03;3.47;;;3.70;63.90;;;;;;6283617;28;20104;-80
2021/03/21 04:34:50;;;;;;;2.80;2.17;;;3.60;63.70;;;;;;6283099;28;20051;-80
2021/03/21 04:37:58;;;;;;;4.00;3.50;;;3.60;63.70;;;;;;6286345;28;20464;-79
2021/03/21 04:41:01;;;;;;;2.80;2.10;;;3.70;64.00;;;;;;6285978;28;20057;-81
2021/03/21 04:44:07;;;;;;;6.32;5.65;;;3.60;63.60;;;;;;6285288;28;20076;-81
2021/03/21 04:47:20;;;;;;;4.05;2.60;;;3.60;63.60;;;;;;6285712;28;20041;-80
2021/03/21 04:50:23;;;;;;;3.58;2.75;;;3.60;63.50;;;;;;6291031;28;20076;-81
2021/03/21 04:53:35;;;;;;;5.20;3.13;;;3.70;63.20;;;;;;6280694;28;20140;-81
2021/03/21 04:56:41;;;;;;;5.87;5.10;;;3.70;63.00;;;;;;6281245;28;20083;-81
2021/03/21 04:59:44;;;;;;;3.13;2.17;;;3.70;62.90;;;;;;6284359;28;20049;-78
2021/03/21 05:02:47;;;;;;;4.90;3.37;;;3.70;62.90;;;;;;6285096;28;20052;-79
2021/03/21 05:05:56;;;;;;;3.35;3.05;;;3.70;63.00;;;;;;6286773;28;20048;-78
2021/03/21 05:09:01;;;;;;;5.33;3.53;;;3.80;63.20;;;;;;6283784;28;20056;-81
2021/03/21 05:12:11;;;;;;;24.27;17.87;;;3.80;63.00;;;;;;6282551;28;20052;-80
2021/03/21 05:15:22;;;;;;;16.43;14.90;;;3.80;63.40;;;;;;6284077;28;20068;-78
2021/03/21 05:18:30;;;;;;;5.80;5.13;;;3.80;63.70;;;;;;6285068;28;20119;-80
2021/03/21 05:21:40;;;;;;;4.53;3.05;;;3.80;64.10;;;;;;6284897;28;20044;-81
2021/03/21 05:24:46;;;;;;;5.38;3.40;;;3.80;64.70;;;;;;6285915;28;20048;-81
2021/03/21 05:27:55;;;;;;;5.23;2.97;;;3.80;65.00;;;;;;6284948;28;20072;-78
2021/03/21 05:30:56;;;;;;;3.13;2.00;;;3.70;65.10;;;;;;6285680;28;20076;-82
2021/03/21 05:33:58;;;;;;;2.63;1.90;;;3.70;64.90;;;;;;6285400;28;20414;-79
2021/03/21 05:37:14;;;;;;;7.13;2.90;;;3.70;65.30;;;;;;6283541;28;20126;-79
2021/03/21 05:41:06;;;;;;;3.17;2.47;;;3.80;65.30;;;;;;6281660;28;20056;-79
2021/03/21 05:44:23;;;;;;;2.60;2.40;;;3.70;65.30;;;;;;6285321;28;20049;-80
2021/03/21 05:47:56;;;;;;;4.00;2.90;;;3.70;65.10;;;;;;6281576;28;20130;-78
2021/03/21 05:51:44;;;;;;;6.75;3.05;;;3.70;64.70;;;;;;6279442;28;20107;-80
2021/03/21 05:55:31;;;;;;;4.70;3.00;;;3.70;64.50;;;;;;6246001;28;20069;-81
2021/03/21 05:58:43;;;;;;;6.60;4.70;;;3.70;64.10;;;;;;6281184;28;20428;-80
2021/03/21 06:02:23;;;;;;;5.73;3.63;;;3.80;63.90;;;;;;6279439;28;20040;-79
2021/03/21 06:05:53;;;;;;;;;;;3.80;63.80;;;;;;6279942;28;20116;-80
2021/03/21 06:09:08;;;;;;;6.00;4.57;;;3.80;63.70;;;;;;6280971;28;19990;-79
2021/03/21 06:12:38;;;;;;;19.93;17.23;;;3.80;63.80;;;;;;6279747;28;20418;-81
2021/03/21 06:16:22;;;;;;;8.75;5.15;;;3.80;63.40;;;;;;6272141;28;20044;-78
2021/03/21 06:19:59;;;;;;;41.43;24.47;;;3.90;63.30;;;;;;6271260;28;20506;-80
2021/03/21 06:23:25;;;;;;;5.83;4.77;;;3.90;63.20;;;;;;6276583;28;20465;-79
2021/03/21 06:26:39;;;;;;;9.63;6.70;;;3.90;62.60;;;;;;6278826;28;20068;-80
2021/03/21 06:29:59;;;;;;;31.53;15.83;;;4.00;62.80;;;;;;6279556;28;20041;-80
2021/03/21 06:33:11;;;;;;;5.85;3.58;;;4.00;62.70;;;;;;6280137;28;20135;-81
2021/03/21 06:36:32;;;;;;;23.73;12.85;;;4.00;62.70;;;;;;6278147;28;20094;-81
2021/03/21 06:40:08;;;;;;;6.70;2.83;;;4.10;62.60;;;;;;6278790;28;20048;-80
2021/03/21 06:43:35;;;;;;;5.28;3.55;;;4.10;62.40;;;;;;6280686;28;20048;-80
2021/03/21 06:47:15;;;;;;;26.55;15.43;;;4.10;62.20;;;;;;6250883;28;20045;-81
2021/03/21 06:50:39;;;;;;;21.48;10.38;;;4.20;62.40;;;;;;6279634;28;20060;-81
2021/03/21 06:53:51;;;;;;;5.72;4.82;;;4.20;62.30;;;;;;6284899;28;20040;-81
2021/03/21 06:57:39;;;;;;;9.82;6.38;;;4.30;62.50;;;;;;6282716;28;20556;-81
2021/03/21 07:01:19;;;;;;;4.63;3.65;;;4.30;62.00;;;;;;6282651;28;20059;-82
2021/03/21 07:04:55;;;;;;;8.07;4.33;;;4.30;61.60;;;;;;6271188;28;20060;-81
2021/03/21 07:08:34;;;;;;;6.20;5.32;;;4.30;61.90;;;;;;6305458;28;20106;-79
2021/03/21 07:12:18;;;;;;;5.88;3.80;;;4.30;61.50;;;;;;6287192;28;20044;-80
2021/03/21 07:16:08;;;;;;;4.25;3.42;;;4.30;61.60;;;;;;6291268;28;20036;-80
2021/03/21 07:19:48;;;;;;;4.95;4.05;;;4.30;61.60;;;;;;6230748;28;20069;-82
2021/03/21 07:23:23;;;;;;;4.47;3.47;;;4.40;61.50;;;;;;6305542;28;20045;-81
2021/03/21 07:27:14;;;;;;;8.50;6.50;;;4.40;61.20;;;;;;6270968;28;20056;-81
2021/03/21 07:30:21;;;;;;;5.55;4.05;;;4.40;60.60;;;;;;6304464;28;20618;-79
2021/03/21 07:33:50;;;;;;;5.07;4.15;;;4.40;61.00;;;;;;6305823;28;20060;-81
2021/03/21 07:37:05;;;;;;;7.53;4.55;;;4.50;60.00;;;;;;6304045;28;20048;-81
2021/03/21 07:40:24;;;;;;;6.60;5.55;;;4.50;59.70;;;;;;6307009;28;20064;-82
2021/03/21 07:43:49;;;;;;;5.63;4.75;;;4.50;59.90;;;;;;6306066;28;20076;-80
2021/03/21 07:47:06;;;;;;;7.13;4.20;;;4.60;59.10;;;;;;6303598;28;20099;-81
2021/03/21 07:50:30;;;;;;;5.88;5.32;;;4.60;58.50;;;;;;6306966;28;20036;-80
2021/03/21 07:53:36;;;;;;;7.22;4.47;;;4.70;58.70;;;;;;6305367;28;20044;-81
2021/03/21 07:56:43;;;;;;;10.88;4.15;;;4.70;58.50;;;;;;6307970;28;20044;-79
2021/03/21 07:59:47;;;;;;;8.20;4.85;;;4.80;58.40;;;;;;6301248;28;20190;-80
2021/03/21 08:02:49;;;;;;;5.68;4.80;;;4.90;58.20;;;;;;6274268;28;20045;-79
2021/03/21 08:05:53;;;;;;;8.60;4.53;;;5.10;57.60;;;;;;6281185;28;20041;-81
2021/03/21 08:09:02;;;;;;;10.15;4.47;;;5.30;57.20;;;;;;6282660;28;20045;-81
2021/03/21 08:12:10;;;;;;;6.18;4.22;;;5.40;56.30;;;;;;6282256;28;20045;-80
2021/03/21 08:15:19;;;;;;;5.65;3.92;;;5.50;56.40;;;;;;6281394;28;20084;-81
2021/03/21 08:18:25;;;;;;;4.50;3.92;;;5.60;56.10;;;;;;6277273;28;20052;-80
2021/03/21 08:21:30;;;;;;;6.20;3.72;;;5.80;54.70;;;;;;6279205;28;20049;-81
2021/03/21 08:24:34;;;;;;;3.78;2.90;;;6.00;54.30;;;;;;6283683;28;20133;-80
2021/03/21 08:27:36;;;;;;;6.32;4.43;;;6.10;53.20;;;;;;6280441;28;20049;-81
2021/03/21 08:30:50;;;;;;;6.18;3.08;;;6.10;52.70;;;;;;6280689;28;20056;-80
2021/03/21 08:33:51;;;;;;;4.47;3.58;;;6.20;53.20;;;;;;6281492;28;20037;-80
2021/03/21 08:36:53;;;;;;;7.43;4.30;;;6.20;52.70;;;;;;6283076;28;20487;-80
2021/03/21 08:39:59;;;;;;;16.75;6.13;;;6.10;53.30;;;;;;6283370;28;20104;-81
2021/03/21 08:43:18;;;;;;;5.70;3.78;;;6.10;53.30;;;;;;6278730;28;20068;-80
2021/03/21 08:46:23;;;;;;;5.85;4.35;;;6.10;53.20;;;;;;6283244;28;20547;-81
2021/03/21 08:49:33;;;;;;;5.25;4.20;;;6.00;53.30;;;;;;6288049;28;20191;-80
2021/03/21 08:52:42;;;;;;;5.40;4.38;;;6.10;54.00;;;;;;6290646;28;20056;-81
2021/03/21 08:55:44;;;;;;;7.50;3.92;;;6.10;53.90;;;;;;6293935;28;20045;-80
2021/03/21 08:58:46;;;;;;;6.60;5.35;;;6.10;53.40;;;;;;6288175;28;20064;-80
2021/03/21 09:02:05;;;;;;;6.60;4.32;;;6.10;54.20;;;;;;6293309;28;20055;-79
2021/03/21 09:05:10;;;;;;;5.15;4.65;;;6.20;54.20;;;;;;6302124;28;20095;-80
2021/03/21 09:08:15;;;;;;;5.95;4.40;;;6.30;53.90;;;;;;6301393;28;20056;-80
2021/03/21 09:11:24;;;;;;;6.70;4.55;;;6.30;53.70;;;;;;6304400;28;20052;-80
2021/03/21 09:14:31;;;;;;;6.70;5.35;;;6.40;53.20;;;;;;6302413;28;20071;-81
2021/03/21 09:17:33;;;;;;;5.30;4.80;;;6.50;53.20;;;;;;6299179;28;20052;-80
2021/03/21 09:20:36;;;;;;;7.32;4.88;;;6.60;52.70;;;;;;6299636;28;20045;-78
2021/03/21 09:23:42;;;;;;;7.20;4.50;;;6.70;53.30;;;;;;6296658;28;20538;-78
2021/03/21 09:26:46;;;;;;;8.82;5.00;;;6.80;53.20;;;;;;6282440;28;20072;-79
2021/03/21 09:29:50;;;;;;;5.68;5.18;;;6.80;53.00;;;;;;6280581;28;20048;-80
2021/03/21 09:32:56;;;;;;;10.07;6.70;;;6.70;53.20;;;;;;6279660;28;20049;-78
2021/03/21 09:36:05;;;;;;;17.38;15.25;;;6.60;53.70;;;;;;6277873;28;20542;-78
2021/03/21 09:39:15;;;;;;;19.15;12.88;;;6.50;54.60;;;;;;6300528;23;20045;-78
2021/03/21 09:42:16;;;;;;;16.30;13.57;;;6.50;55.50;;;;;;6276523;28;20045;-78
2021/03/21 09:45:20;;;;;;;8.13;6.75;;;6.60;56.20;;;;;;6278643;28;20052;-79
2021/03/21 09:48:32;;;;;;;9.02;6.80;;;6.60;57.00;;;;;;6278116;28;20053;-78
2021/03/21 09:51:43;;;;;;;12.60;9.82;;;6.60;57.20;;;;;;6253085;28;20527;-78
2021/03/21 09:54:52;;;;;;;13.80;10.25;;;6.60;58.00;;;;;;6252592;28;20041;-78
2021/03/21 09:58:09;;;;;;;20.70;17.42;;;6.60;58.60;;;;;;6253703;28;20065;-80
2021/03/21 10:01:20;;;;;;;19.13;14.75;;;6.50;58.80;;;;;;6251902;28;20477;-79
2021/03/21 10:04:30;;;;;;;9.18;6.90;;;6.50;59.30;;;;;;6253648;28;20084;-78
2021/03/21 10:07:42;;;;;;;10.18;6.78;;;6.50;60.00;;;;;;6251526;28;20130;-79
2021/03/21 10:10:52;;;;;;;9.15;6.80;;;6.50;60.90;;;;;;6251959;28;20556;-78
2021/03/21 10:13:57;;;;;;;21.42;18.67;;;6.50;60.40;;;;;;6251407;28;20470;-78
2021/03/21 10:16:59;;;;;;;9.27;7.85;;;6.60;62.60;;;;;;6253089;28;20073;-78
2021/03/21 10:20:02;;;;;;;11.45;7.38;;;6.70;62.10;;;;;;6251103;28;20056;-78
2021/03/21 10:23:03;;;;;;;12.15;6.53;;;6.70;61.90;;;;;;6252874;28;20049;-80
2021/03/21 10:26:06;;;;;;;9.18;7.65;;;6.70;61.80;;;;;;6253763;28;20478;-78
2021/03/21 10:29:42;;;;;;;10.95;9.82;;;6.70;62.40;;;;;;6251732;28;20061;-78
2021/03/21 10:32:46;;;;;;;9.38;6.90;;;6.70;62.80;;;;;;6251028;28;20453;-78
2021/03/21 10:35:57;;;;;;;12.85;8.15;;;6.60;63.70;;;;;;6251410;28;20075;-78
2021/03/21 10:38:59;;;;;;;7.93;6.95;;;6.60;64.80;;;;;;6251384;28;20073;-79
2021/03/21 10:42:01;;;;;;;11.05;6.75;;;6.50;66.40;;;;;;6252295;28;20045;-78
2021/03/21 10:45:06;;;;;;;12.75;7.80;;;6.40;68.00;;;;;;6252723;28;20049;-78
2021/03/21 10:48:10;;;;;;;11.40;7.97;;;6.40;69.10;;;;;;6253228;28;20510;-78
2021/03/21 10:51:13;;;;;;;9.70;7.57;;;6.20;69.30;;;;;;6252337;28;20045;-77
2021/03/21 10:54:26;;;;;;;8.48;7.35;;;6.10;70.10;;;;;;6253085;28;20128;-78
2021/03/21 10:57:43;;;;;;;12.93;8.60;;;6.10;70.80;;;;;;6254255;28;20056;-78
2021/03/21 11:01:04;;;;;;;8.93;7.97;;;6.10;70.80;;;;;;6252466;28;20132;-78
2021/03/21 11:04:31;;;;;;;10.57;7.78;;;6.10;71.10;;;;;;6251625;28;20073;-78
2021/03/21 11:07:33;;;;;;;9.48;7.97;;;6.10;71.10;;;;;;6251744;28;20084;-77
2021/03/21 11:10:37;;;;;;;11.57;8.82;;;6.10;70.90;;;;;;6251795;28;20111;-78
2021/03/21 11:13:38;;;;;;;9.48;7.75;;;6.10;71.00;;;;;;6241232;28;20127;-78
2021/03/21 11:16:40;;;;;;;11.05;8.80;;;6.20;70.90;;;;;;6236463;28;20128;-78
2021/03/21 11:19:48;;;;;;;13.85;7.72;;;6.20;70.30;;;;;;6235672;28;20041;-77
2021/03/21 11:22:50;;;;;;;11.95;8.73;;;6.30;70.20;;;;;;6238449;28;20091;-77
2021/03/21 11:25:52;;;;;;;10.88;6.82;;;6.50;69.40;;;;;;6236839;28;20114;-78
2021/03/21 11:29:07;;;;;;;9.50;7.15;;;6.70;68.90;;;;;;6251733;28;20050;-79
2021/03/21 11:32:14;;;;;;;10.55;7.20;;;7.00;67.30;;;;;;6250344;28;20128;-78
2021/03/21 11:35:24;;;;;;;8.50;6.72;;;7.30;66.70;;;;;;6251044;28;20073;-79
2021/03/21 11:38:30;;;;;;;9.23;8.18;;;7.50;65.80;;;;;;6256494;28;20025;-77
2021/03/21 11:41:36;;;;;;;9.70;8.25;;;7.70;64.90;;;;;;6274728;28;20053;-78
2021/03/21 11:44:38;;;;;;;9.68;7.75;;;7.70;64.80;;;;;;6259920;28;20049;-78
2021/03/21 11:47:41;;;;;;;10.13;8.05;;;7.70;64.80;;;;;;6249176;28;20116;-78
2021/03/21 11:50:46;;;;;;;15.32;7.45;;;7.80;64.80;;;;;;6248651;28;20084;-77
2021/03/21 11:53:48;;;;;;;9.82;7.68;;;7.90;64.40;;;;;;6249407;28;20120;-80
2021/03/21 11:56:59;;;;;;;13.10;8.05;;;8.00;64.00;;;;;;6253195;28;20052;-78
2021/03/21 12:00:06;;;;;;;11.63;8.73;;;8.00;63.70;;;;;;6250280;28;20056;-78
2021/03/21 12:03:13;;;;;;;10.45;8.07;;;8.00;63.90;;;;;;6249937;28;20437;-80
2021/03/21 12:06:24;;;;;;;11.32;7.25;;;8.30;63.90;;;;;;6251410;28;20069;-79
2021/03/21 12:09:29;;;;;;;9.50;7.22;;;8.40;63.60;;;;;;6250066;28;20132;-79
2021/03/21 12:12:35;;;;;;;10.77;8.65;;;8.60;62.70;;;;;;6251774;28;20499;-79
2021/03/21 12:15:38;;;;;;;10.65;8.20;;;8.60;62.80;;;;;;6251978;28;20041;-79
2021/03/21 12:18:40;;;;;;;12.63;7.60;;;8.60;62.80;;;;;;6252087;28;20565;-79
2021/03/21 12:21:50;;;;;;;10.65;8.43;;;8.40;63.20;;;;;;6254275;28;20061;-79
2021/03/21 12:24:53;;;;;;;8.02;7.10;;;8.20;64.20;;;;;;6257497;28;20064;-79
2021/03/21 12:28:04;;;;;;;11.20;9.15;;;8.00;64.60;;;;;;6257136;28;20045;-79
2021/03/21 12:31:12;;;;;;;10.63;8.95;;;7.80;65.60;;;;;;6257956;28;20092;-79
2021/03/21 12:34:32;;;;;;;;;;;7.50;66.80;;;;;;6259187;28;20046;-79
2021/03/21 12:37:50;;;;;;;9.73;7.75;;;7.40;66.80;;;;;;6258310;28;19921;-79
2021/03/21 12:40:53;;;;;;;9.27;7.53;;;7.40;67.60;;;;;;6259058;28;20332;-80
2021/03/21 12:44:20;;;;;;;13.95;8.95;;;7.50;67.50;;;;;;6258759;28;20068;-79
2021/03/21 12:47:33;;;;;;;9.65;7.32;;;7.70;67.10;;;;;;6259931;28;20096;-80
2021/03/21 12:50:47;;;;;;;12.52;8.70;;;7.80;67.10;;;;;;6259331;28;20049;-80
2021/03/21 12:53:49;;;;;;;9.75;8.75;;;7.80;66.70;;;;;;6258233;28;20041;-79
2021/03/21 12:56:51;;;;;;;12.68;10.98;;;8.10;70.20;;;;;;6257557;28;20136;-78
2021/03/21 12:59:53;;;;;;;12.00;9.63;;;8.60;66.00;;;;;;6255849;28;20079;-79
2021/03/21 13:02:56;;;;;;;13.15;9.57;;;8.90;64.90;;;;;;6255890;28;20595;-79
2021/03/21 13:05:59;;;;;;;13.00;9.98;;;8.90;64.20;;;;;;6257018;28;20068;-79
2021/03/21 13:09:01;;;;;;;12.80;9.23;;;9.00;63.60;;;;;;6257123;28;20191;-80
2021/03/21 13:12:03;;;;;;;12.10;10.20;;;9.00;63.70;;;;;;6255588;28;20049;-79
2021/03/21 13:15:06;;;;;;;10.88;8.95;;;8.80;63.60;;;;;;6256613;28;20069;-79
2021/03/21 13:18:07;;;;;;;13.73;9.50;;;8.70;64.20;;;;;;6255762;28;20096;-78
2021/03/21 13:21:08;;;;;;;9.95;8.93;;;8.80;64.00;;;;;;6256099;28;20132;-79
2021/03/21 13:24:11;;;;;;;11.98;9.50;;;8.90;64.10;;;;;;6255581;28;20068;-79
2021/03/21 13:27:12;;;;;;;11.20;9.32;;;8.80;63.90;;;;;;6256187;28;20549;-79
2021/03/21 13:30:16;;;;;;;12.35;8.65;;;8.70;64.70;;;;;;6255768;28;20049;-79
2021/03/21 13:33:21;;;;;;;14.13;10.48;;;8.60;65.70;;;;;;6254639;28;20107;-79
2021/03/21 13:36:23;;;;;;;14.55;12.25;;;8.50;65.70;;;;;;6256484;28;20045;-79
2021/03/21 13:39:25;;;;;;;12.65;10.02;;;8.30;66.50;;;;;;6254541;28;20072;-79
2021/03/21 13:42:26;;;;;;;15.82;12.55;;;8.30;67.10;;;;;;6254646;28;20076;-79
2021/03/21 13:45:31;;;;;;;13.93;11.18;;;8.10;67.60;;;;;;6253844;28;20084;-79
2021/03/21 13:48:35;;;;;;;12.38;10.25;;;7.90;68.30;;;;;;6255107;28;20147;-79
2021/03/21 13:51:37;;;;;;;13.07;11.20;;;8.00;68.80;;;;;;6255417;28;20041;-79
2021/03/21 13:54:39;;;;;;;12.23;10.23;;;8.10;68.40;;;;;;6253884;28;20057;-79
2021/03/21 13:57:40;;;;;;;12.63;10.45;;;8.20;67.90;;;;;;6255588;28;20046;-80
2021/03/21 14:00:42;;;;;;;12.65;11.23;;;8.30;67.50;;;;;;6256029;28;20049;-79
2021/03/21 14:03:43;;;;;;;13.25;11.43;;;8.30;67.50;;;;;;6255223;28;20056;-79
2021/03/21 14:06:45;;;;;;;15.52;11.85;;;8.40;67.60;;;;;;6253003;28;20053;-79
2021/03/21 14:09:47;;;;;;;68.68;48.65;;;8.50;67.40;;;;;;6240925;28;20133;-77
2021/03/21 14:12:49;;;;;;;95.32;73.97;;;8.60;67.10;;;;;;6231069;28;20073;-79
2021/03/21 14:15:50;;;;;;;14.73;11.18;;;8.60;67.00;;;;;;6226534;28;20049;-79
2021/03/21 14:18:52;;;;;;;25.05;17.80;;;8.60;66.70;;;;;;6227901;28;20057;-79
2021/03/21 14:21:53;;;;;;;13.48;11.27;;;8.50;66.70;;;;;;6229522;28;20073;-79
2021/03/21 14:24:55;;;;;;;15.82;11.52;;;8.50;66.90;;;;;;6230792;28;20524;-84
2021/03/21 14:27:56;;;;;;;14.38;10.13;;;8.50;66.90;;;;;;6227160;28;20125;-79
2021/03/21 14:30:58;;;;;;;12.07;10.27;;;8.50;66.50;;;;;;6227359;28;20069;-79
2021/03/21 14:34:00;;;;;;;14.13;10.20;;;8.40;66.40;;;;;;6230056;28;20037;-83
2021/03/21 14:37:02;;;;;;;12.02;10.38;;;8.30;66.80;;;;;;6230682;28;20053;-81
2021/03/21 14:40:06;;;;;;;12.85;11.00;;;8.20;66.70;;;;;;6230252;28;20077;-79
2021/03/21 14:43:10;;;;;;;10.32;8.80;;;8.10;67.20;;;;;;6231384;28;20058;-80
2021/03/21 14:46:12;;;;;;;15.27;11.85;;;8.10;67.50;;;;;;6230891;28;20073;-79
2021/03/21 14:49:14;;;;;;;15.90;10.68;;;8.10;67.40;;;;;;6230789;28;20069;-79
2021/03/21 14:52:18;;;;;;;10.32;9.32;;;8.10;67.40;;;;;;6232938;28;20046;-79
2021/03/21 14:55:23;;;;;;;11.73;9.73;;;8.20;67.20;;;;;;6231307;28;20041;-78
2021/03/21 14:58:28;;;;;;;10.20;8.90;;;8.30;67.30;;;;;;6237573;28;20129;-78
2021/03/21 15:01:29;;;;;;;11.20;9.48;;;8.30;66.90;;;;;;6255162;28;20054;-79
2021/03/21 15:04:31;;;;;;;11.98;10.75;;;8.30;66.90;;;;;;6253735;28;20452;-79
2021/03/21 15:07:32;;;;;;;10.90;9.90;;;8.50;66.70;;;;;;6237567;28;20185;-79
2021/03/21 15:10:34;;;;;;;14.75;9.98;;;8.50;66.40;;;;;;6229744;28;20129;-79
2021/03/21 15:13:36;;;;;;;12.35;9.10;;;8.50;65.30;;;;;;6228333;28;20579;-78
2021/03/21 15:16:38;;;;;;;14.75;11.27;;;8.40;65.70;;;;;;6228580;28;20180;-79
2021/03/21 15:19:39;;;;;;;23.42;18.63;;;8.30;66.40;;;;;;6229016;28;20077;-79
2021/03/21 15:22:41;;;;;;;12.52;10.30;;;8.20;66.70;;;;;;6229392;28;20681;-79
2021/03/21 15:25:46;;;;;;;13.77;10.18;;;8.20;66.80;;;;;;6228844;28;20188;-80
2021/03/21 15:28:50;;;;;;;16.73;10.95;;;8.20;66.70;;;;;;6229820;28;20060;-79
2021/03/21 15:31:51;;;;;;;15.73;11.25;;;8.00;66.80;;;;;;6230600;28;20053;-80
2021/03/21 15:34:53;;;;;;;13.45;10.85;;;8.00;67.10;;;;;;6229704;28;20133;-79
2021/03/21 15:37:54;;;;;;;10.95;9.10;;;7.90;67.00;;;;;;6228600;28;20046;-79
2021/03/21 15:40:56;;;;;;;14.90;10.13;;;7.90;67.20;;;;;;6228899;28;20443;-79
2021/03/21 15:43:59;;;;;;;16.88;11.13;;;7.90;67.70;;;;;;6227831;28;20065;-79
2021/03/21 15:47:00;;;;;;;13.63;10.57;;;7.80;67.60;;;;;;6227408;28;20133;-78
2021/03/21 15:50:02;;;;;;;14.65;10.82;;;7.80;67.90;;;;;;6228421;28;20041;-79
2021/03/21 15:53:06;;;;;;;11.18;9.27;;;7.80;69.10;;;;;;6255909;23;20036;-81
2021/03/21 15:56:08;;;;;;;12.27;8.77;;;7.90;68.00;;;;;;6272684;28;20076;-81
2021/03/21 15:59:10;;;;;;;13.38;9.40;;;8.00;67.60;;;;;;6260222;28;20041;-82
2021/03/21 16:02:12;;;;;;;11.63;10.40;;;8.10;67.10;;;;;;6261322;28;20461;-82
2021/03/21 16:05:14;;;;;;;9.75;8.45;;;8.10;67.30;;;;;;6264968;28;20095;-81
2021/03/21 16:08:16;;;;;;;14.32;10.73;;;8.10;67.00;;;;;;6286451;28;20102;-82
2021/03/21 16:11:21;;;;;;;10.82;9.38;;;8.10;67.40;;;;;;6282324;28;20048;-83
2021/03/21 16:14:23;;;;;;;16.40;11.15;;;8.00;67.00;;;;;;6296649;28;20080;-82
2021/03/21 16:17:25;;;;;;;12.95;9.45;;;7.80;67.50;;;;;;6294607;28;20053;-83
2021/03/21 16:20:27;;;;;;;13.80;10.35;;;7.80;67.90;;;;;;6290837;28;20127;-81
2021/03/21 16:23:28;;;;;;;10.73;8.23;;;7.70;68.20;;;;;;6295317;28;20490;-83
2021/03/21 16:26:30;;;;;;;12.35;9.95;;;7.70;68.50;;;;;;6287616;28;20055;-81
2021/03/21 16:29:32;;;;;;;13.43;9.85;;;7.80;67.90;;;;;;6290775;28;20045;-79